Grand Forks International Airport
KGFK : rendu visible

Aérodrome :











RETROUVEZ-NOUS SUR...

 
LOGIN :

S'inscrire | Disclaimer

   EN    FR    IT 

 









Légende :    VFR   VFR Marginal   IFR   IFR Intensif   IFR Très Intensif
Visi : 
Plafond : 
>= 8 km
>= 3000ft
5 à 8 km
1000 à 3000 ft
1500m à 5 km
500 à 1000 ft
800 à 1500m
200 à 500 ft
< 800m
< 200 ft
Symboles :   Orages  Brouillard  Fortes neiges  Fortes précipitations  Vent > 20 kt






- Altitude de l'aérodrome : 845 ft
- Code IATA : GFK


KGFK - Grand Forks International

DERNIER METAR :
  • 251253Z 30005KT 10SM OVC060 M04/M08 A3041 RMK AO2 SLP312 T10441083

METARs EXPIRÉS :
  • 251153Z 29005KT 10SM OVC055 M04/M08 A3040 RMK AO2 SLP311 T10441083 11039 21044 55001
  • 251053Z 29005KT 10SM OVC055 M04/M08 A3040 RMK AO2 SLP310 T10441083
  • 250953Z AUTO 29005KT 10SM OVC060 M04/M09 A3040 RMK AO2 SLP311 T10441089

TAF KGFK
Valide du 25 à 12h jusqu'au 26 à 12h UTC


251120Z 2512/2612 29005KT P6SM OVC060
FM251700 30011KT P6SM SCT080
FM260300 27007KT P6SM SCT090
FIR KZMP / Amérique du Nord



MET'MAP, la Météo Aéronautique d'un coup d'oeil ! - Copyright ORBIFLY Décembre 2007 - Disclaimer

ORBIFLY MET'MAP TEAM :

Programmation & Développement : Alexandra Zaïnal
Sur une idée originale de : Baudouin d'Aumeries
Assistance à la programmation : Marc-Olivier Méhu
Soutien technique & logistique : Manuel Goepfert

Contact : metmap@orbifly.com




SOURCES & CREDITS :

   NOAA       Earth
Advisory